Airfield :
LOGIN :

Register | Disclaimer

   EN    FR    IT 

 










Legend :    VFR   Marginal VFR   IFR   Intensive IFR   Very Intensive IFR
Visi :
Ceiling :
>= 8 km
>= 3000ft
5 to 8 km
1000 to 3000 ft
1500m to 5 km
500 to 1000 ft
800 to 1500m
200 to 500 ft
< 800m
< 200 ft
Symbols :   Thunderstorms  Fog  Heavy snow  Heavy precipitations  Wind > 20 kt
SIGMETs :     Misc.  Thunderstorms  Icing  Turbulence  Mountain Waves  Volcanic Ashes







- Airport Elevation : 72 ft
- IATA code : UDE


EHVK - Volkel Airbase

CURRENT METAR :
  • 222208Z AUTO 19002KT 7000 BR BKN083 BKN092 OVC140 14/14 Q1011 WHT

EXPIRED METARs :
  • 222155Z AUTO VRB01KT 5000 BR FEW086 OVC100 15/15 Q1011 WHT
  • 222140Z AUTO VRB01KT 3200 BR SCT079 BKN087 BKN094 15/15 Q1011 YLO
  • 222128Z AUTO VRB01KT 3400 BR SCT083 BKN090 BKN095 14/14 Q1011 YLO
  • 222125Z AUTO VRB01KT 3800 BR SCT083 BKN090 BKN096 14/14 Q1011 GRN
  • 222114Z AUTO VRB01KT 4000 BR SCT088 OVC130 14/14 Q1011 GRN
  • 222107Z AUTO 23001KT 3100 BR SCT130 14/14 Q1011 YLO
  • 222101Z AUTO 00000KT 1500 BR FEW140 14/14 Q1011 AMB
  • 222055Z AUTO 00000KT 1200 BR FEW064 14/14 Q1011 AMB
  • 222042Z AUTO 00000KT 3200 BR FEW067 15/15 Q1010 YLO
  • 222026Z AUTO VRB01KT 4700 BR NCD 15/15 Q1010 GRN
  • 222025Z AUTO VRB01KT 2000 BR NCD 15/15 Q1010 YLO
  • 222016Z AUTO 15001KT 0400 FG NCD 14/14 Q1010 RED
  • 221956Z AUTO 00000KT 3000 BR NCD 15/15 Q1010 YLO
  • 221955Z AUTO 00000KT 6000 BR NCD 15/15 Q1010 WHT
  • 221949Z AUTO VRB01KT 6000 BR FEW060 SCT076 15/15 Q1010 WHT
  • 221933Z AUTO 22001KT 5000 BR FEW056 SCT062 15/15 Q1010 WHT
  • 221931Z AUTO 25001KT 4500 BR FEW056 SCT061 16/15 Q1010 GRN
  • 221925Z AUTO VRB02KT 7000 BR FEW061 16/15 Q1010 WHT
  • 221916Z AUTO VRB02KT 7000 BR NCD 16/14 Q1010 WHT

Expired Forecast.
No reported NOTAMs for that airfield.



MET'MAP, your aeronautical weather chart ! - Copyright ORBIFLY December 2007 - Disclaimer

ORBIFLY MET'MAP TEAM :

Programming & Development : Alexandra Zaïnal
Concept & Development : Baudouin d'Aumeries
Co-Development & Prog : Marc-Olivier Méhu
Technical & hardware support : Manuel Goepfert

Contact : metmap@orbifly.com




SOURCES & CREDITS :

   NOAA